Dayton, Texas
Current Conditions -  °F | °C
As of 9:53 PM on Saturday 25 Oct 2014 (Local Time) from KIAH Reporting Station
Clear Clear  
Wind Chill: 68°   Ceiling: Unl
Heat Index: 68°   Visibility: 10mi
Dew Point: 58°   Wind: 3mph
Humidity: 70%   Direction: 180°S
Pressure: 30.11"   Gusts: NA
Location:  30.04°N, 94.89°W
Report Text: KIAH 260253Z 18003KT 10SM CLR 20/14 A3011 RMK AO2 SLP195 T02000144 51007
Loading
Personal Weather Stations






























Interactive Weather Map
Tropical Storm Tracking
New forecast layout! Learn more

10-Day Weather Forecast

Advertisements
Track Severe Weather on mobile